createdAt,value
2022-08-11T00:00:56.312Z,102283.81
2022-08-11T00:03:57.659Z,102288.72
2022-08-11T00:06:54.386Z,102279.09
2022-08-11T00:09:51.903Z,102283.59
2022-08-11T00:12:57.119Z,102283.50
2022-08-11T00:15:54.253Z,102275.03
2022-08-11T00:18:53.218Z,102275.63
2022-08-11T00:22:04.707Z,102292.50
2022-08-11T00:25:11.276Z,102278.31
2022-08-11T00:28:29.857Z,102280.72
2022-08-11T00:31:31.549Z,102272.41
2022-08-11T00:34:31.026Z,102276.56
2022-08-11T00:37:28.272Z,102271.84
2022-08-11T00:40:43.108Z,102269.75
2022-08-11T00:44:05.644Z,102284.44
2022-08-11T00:47:24.457Z,102272.88
2022-08-11T00:50:47.366Z,102270.22
2022-08-11T00:54:02.742Z,102270.09
2022-08-11T00:57:38.999Z,102262.88
2022-08-11T01:01:10.339Z,102276.69
2022-08-11T01:04:10.829Z,102276.50
2022-08-11T01:08:01.637Z,102278.34
2022-08-11T01:11:11.094Z,102279.81
2022-08-11T01:14:34.662Z,102284.56
2022-08-11T01:17:54.648Z,102292.09
2022-08-11T01:21:16.204Z,102288.44
2022-08-11T01:24:31.980Z,102285.53
2022-08-11T01:27:35.157Z,102294.13
2022-08-11T01:30:47.745Z,102286.06
2022-08-11T01:34:03.002Z,102284.94
2022-08-11T01:37:26.421Z,102275.72
2022-08-11T01:40:41.338Z,102281.91
2022-08-11T01:44:20.147Z,102287.78
2022-08-11T01:47:53.068Z,102283.66
2022-08-11T01:51:09.373Z,102290.47
2022-08-11T01:54:43.878Z,102283.69
2022-08-11T01:58:19.082Z,102285.88
2022-08-11T02:01:32.814Z,102299.28
2022-08-11T02:04:45.421Z,102295.13
2022-08-11T02:08:22.337Z,102293.50
2022-08-11T02:11:35.628Z,102290.69
2022-08-11T02:15:08.300Z,102285.97
2022-08-11T02:18:17.302Z,102287.31
2022-08-11T02:21:35.532Z,102278.16
2022-08-11T02:24:38.076Z,102280.34
2022-08-11T02:27:45.911Z,102266.25
2022-08-11T02:31:11.685Z,102252.00
2022-08-11T02:34:37.295Z,102265.63
2022-08-11T02:37:34.411Z,102273.38
2022-08-11T02:40:53.889Z,102267.88
2022-08-11T02:44:00.615Z,102273.13
2022-08-11T02:47:06.882Z,102270.66
2022-08-11T02:50:07.278Z,102272.66
2022-08-11T02:53:16.985Z,102275.84
2022-08-11T02:56:23.863Z,102272.13
2022-08-11T02:59:42.030Z,102257.00
2022-08-11T03:03:25.784Z,102265.22
2022-08-11T03:06:31.614Z,102267.78
2022-08-11T03:10:03.855Z,102269.63
2022-08-11T03:13:40.311Z,102270.53
2022-08-11T03:16:58.890Z,102270.34
2022-08-11T03:20:09.054Z,102273.38
2022-08-11T03:23:46.426Z,102261.84
2022-08-11T03:26:53.921Z,102258.09
2022-08-11T03:29:59.037Z,102260.31
2022-08-11T03:33:34.092Z,102257.53
2022-08-11T03:37:16.880Z,102256.53
2022-08-11T03:40:57.652Z,102255.56
2022-08-11T03:44:05.014Z,102252.59
2022-08-11T03:47:34.391Z,102252.38
2022-08-11T03:50:55.214Z,102255.88
2022-08-11T03:54:05.919Z,102259.13
2022-08-11T03:57:40.826Z,102256.72
2022-08-11T04:01:22.656Z,102254.16
2022-08-11T04:04:45.330Z,102251.28
2022-08-11T04:08:15.779Z,102254.50
2022-08-11T04:11:30.045Z,102260.03
2022-08-11T04:15:21.588Z,102261.44
2022-08-11T04:18:34.238Z,102269.09
2022-08-11T04:21:56.302Z,102267.50
2022-08-11T04:24:53.750Z,102261.63
2022-08-11T04:28:06.441Z,102256.81
2022-08-11T04:31:03.877Z,102250.94
2022-08-11T04:34:32.223Z,102252.13
2022-08-11T04:37:42.449Z,102245.66
2022-08-11T04:41:08.987Z,102251.81
2022-08-11T04:44:06.759Z,102249.63
2022-08-11T04:48:04.073Z,102249.25
2022-08-11T04:51:45.194Z,102255.63
2022-08-11T04:55:15.206Z,102250.47
2022-08-11T04:58:56.055Z,102251.72
2022-08-11T05:02:16.904Z,102245.00
2022-08-11T05:05:56.513Z,102242.69
2022-08-11T05:09:12.449Z,102241.03
2022-08-11T05:12:26.125Z,102253.72
2022-08-11T05:16:00.782Z,102260.78
2022-08-11T05:19:16.492Z,102259.84
2022-08-11T05:22:33.442Z,102260.56
2022-08-11T05:26:45.382Z,102261.25
2022-08-11T05:30:00.176Z,102260.50
2022-08-11T05:33:25.714Z,102265.44
2022-08-11T05:36:50.591Z,102270.25
2022-08-11T05:40:08.034Z,102273.25
2022-08-11T05:43:30.860Z,102270.44
2022-08-11T05:46:46.612Z,102277.31
2022-08-11T05:50:08.223Z,102279.59
2022-08-11T05:53:24.536Z,102273.06
2022-08-11T05:56:21.505Z,102277.81
2022-08-11T05:59:18.994Z,102271.81
2022-08-11T06:02:15.980Z,102268.72
2022-08-11T06:05:12.946Z,102269.88
2022-08-11T06:08:10.285Z,102268.34
2022-08-11T06:11:07.874Z,102265.31
2022-08-11T06:14:04.859Z,102273.28
2022-08-11T06:17:03.707Z,102275.94
2022-08-11T06:20:07.634Z,102267.44
2022-08-11T06:23:06.751Z,102270.28
2022-08-11T06:26:08.976Z,102264.00
2022-08-11T06:29:05.857Z,102265.56
2022-08-11T06:32:03.370Z,102264.50
2022-08-11T06:35:16.231Z,102263.34
2022-08-11T06:38:52.003Z,102264.16
2022-08-11T06:41:49.778Z,102265.97
2022-08-11T06:44:58.348Z,102264.44
2022-08-11T06:47:55.768Z,102262.69
2022-08-11T06:51:12.649Z,102265.94
2022-08-11T06:54:11.798Z,102251.38
2022-08-11T06:57:36.949Z,102262.69
2022-08-11T07:00:33.681Z,102254.50
2022-08-11T07:03:30.482Z,102261.53
2022-08-11T07:07:13.821Z,102263.28
2022-08-11T07:10:39.267Z,102266.81
2022-08-11T07:13:56.903Z,102278.31
2022-08-11T07:16:53.822Z,102266.94
2022-08-11T07:20:12.229Z,102272.03
2022-08-11T07:23:28.720Z,102255.91
2022-08-11T07:26:45.022Z,102261.25
2022-08-11T07:29:43.666Z,102267.53
2022-08-11T07:33:00.504Z,102271.44
2022-08-11T07:35:58.155Z,102264.47
2022-08-11T07:38:56.291Z,102270.66
2022-08-11T07:41:57.135Z,102269.06
2022-08-11T07:45:14.066Z,102261.72
2022-08-11T07:48:29.441Z,102254.31
2022-08-11T07:51:45.257Z,102262.53
2022-08-11T07:54:43.878Z,102257.59
2022-08-11T07:58:16.813Z,102262.16
2022-08-11T08:01:43.531Z,102256.78
2022-08-11T08:04:59.431Z,102253.06
2022-08-11T08:08:15.466Z,102251.00
2022-08-11T08:11:33.337Z,102256.31
2022-08-11T08:14:49.877Z,102257.09
2022-08-11T08:18:20.879Z,102236.88
2022-08-11T08:21:13.116Z,102253.31
2022-08-11T08:24:09.591Z,102251.63
2022-08-11T08:27:07.119Z,102249.50
2022-08-11T08:30:23.439Z,102258.03
2022-08-11T08:33:21.498Z,102250.59
2022-08-11T08:36:20.507Z,102248.19
2022-08-11T08:39:21.826Z,102259.59
2022-08-11T08:42:27.031Z,102264.31
2022-08-11T08:45:24.746Z,102255.25
2022-08-11T08:48:21.669Z,102244.13
2022-08-11T08:52:01.180Z,102250.34
2022-08-11T08:54:56.406Z,102239.44
2022-08-11T08:57:54.797Z,102242.66
2022-08-11T09:00:53.246Z,102243.50
2022-08-11T09:04:04.905Z,102253.34
2022-08-11T09:07:13.442Z,102246.91
2022-08-11T09:10:11.565Z,102253.66
2022-08-11T09:13:09.434Z,102245.28
2022-08-11T09:16:09.537Z,102245.72
2022-08-11T09:19:07.437Z,102241.19
2022-08-11T09:22:23.566Z,102250.91
2022-08-11T09:25:40.467Z,102236.09
2022-08-11T09:28:37.795Z,102232.34
2022-08-11T09:31:39.642Z,102242.94
2022-08-11T09:34:37.224Z,102235.69
2022-08-11T09:37:55.803Z,102240.28
2022-08-11T09:40:57.093Z,102243.03
2022-08-11T09:44:13.381Z,102236.25
2022-08-11T09:47:15.539Z,102239.78
2022-08-11T09:50:14.845Z,102230.25
2022-08-11T09:53:37.413Z,102228.03
2022-08-11T09:56:49.503Z,102222.72
2022-08-11T09:59:47.774Z,102221.03
2022-08-11T10:02:46.392Z,102213.31
2022-08-11T10:06:08.004Z,102212.34
2022-08-11T10:09:06.259Z,102219.63
2022-08-11T10:12:03.264Z,102221.84
2022-08-11T10:15:23.041Z,102219.84
2022-08-11T10:18:42.301Z,102215.84
2022-08-11T10:21:45.167Z,102215.03
2022-08-11T10:25:00.563Z,102216.69
2022-08-11T10:28:28.946Z,102215.09
2022-08-11T10:31:43.827Z,102203.28
2022-08-11T10:34:54.491Z,102208.22
2022-08-11T10:38:06.201Z,102202.44
2022-08-11T10:41:27.870Z,102194.00
2022-08-11T10:44:25.163Z,102199.38
2022-08-11T10:47:39.321Z,102197.44
2022-08-11T10:51:05.658Z,102194.50
2022-08-11T10:54:21.504Z,102194.06
2022-08-11T10:57:37.562Z,102191.91
2022-08-11T11:00:36.211Z,102180.56
2022-08-11T11:03:35.915Z,102186.09
2022-08-11T11:06:44.926Z,102177.75
2022-08-11T11:09:48.398Z,102180.91
2022-08-11T11:13:05.912Z,102193.03
2022-08-11T11:16:21.395Z,102188.84
2022-08-11T11:19:20.838Z,102174.97
2022-08-11T11:22:36.826Z,102168.91
2022-08-11T11:25:40.288Z,102174.63
2022-08-11T11:29:03.675Z,102172.94
2022-08-11T11:32:10.237Z,102169.81
2022-08-11T11:35:15.801Z,102169.00
2022-08-11T11:38:14.270Z,102175.09
2022-08-11T11:41:26.235Z,102186.75
2022-08-11T11:44:23.197Z,102182.06
2022-08-11T11:47:21.799Z,102184.50
2022-08-11T11:50:32.773Z,102177.09
2022-08-11T11:53:30.113Z,102175.91
2022-08-11T11:56:26.846Z,102173.81
2022-08-11T11:59:44.477Z,102163.25
2022-08-11T12:02:43.056Z,102169.06
2022-08-11T12:05:40.818Z,102163.84
2022-08-11T12:08:37.918Z,102162.06
2022-08-11T12:11:53.768Z,102160.34
2022-08-11T12:14:51.001Z,102159.63
2022-08-11T12:17:52.388Z,102154.38
2022-08-11T12:20:49.932Z,102165.88
2022-08-11T12:24:05.882Z,102156.34
2022-08-11T12:27:28.583Z,102148.09
2022-08-11T12:30:26.149Z,102151.19
2022-08-11T12:33:23.945Z,102142.72
2022-08-11T12:36:20.900Z,102140.31
2022-08-11T12:40:16.973Z,102138.25
2022-08-11T12:43:37.268Z,102131.16
2022-08-11T12:46:37.883Z,102125.44
2022-08-11T12:49:59.046Z,102127.44
2022-08-11T12:52:57.085Z,102122.63
2022-08-11T12:56:14.076Z,102122.53
2022-08-11T12:59:29.733Z,102123.56
2022-08-11T13:02:45.517Z,102124.75
2022-08-11T13:05:45.191Z,102114.41
2022-08-11T13:08:42.135Z,102131.88
2022-08-11T13:11:58.987Z,102117.41
2022-08-11T13:14:56.286Z,102122.53
2022-08-11T13:17:54.186Z,102124.44
2022-08-11T13:20:54.745Z,102120.44
2022-08-11T13:24:00.715Z,102113.97
2022-08-11T13:26:59.843Z,102126.94
2022-08-11T13:30:21.188Z,102105.00
2022-08-11T13:33:19.422Z,102110.13
2022-08-11T13:36:20.916Z,102111.66
2022-08-11T13:39:18.460Z,102104.63
2022-08-11T13:42:16.369Z,102110.84
2022-08-11T13:45:14.117Z,102106.19
2022-08-11T13:48:11.215Z,102102.09
2022-08-11T13:51:34.200Z,102108.56
2022-08-11T13:54:32.792Z,102096.47
2022-08-11T13:58:08.502Z,102098.41
2022-08-11T14:00:52.660Z,102089.78
2022-08-11T14:04:29.663Z,102088.75
2022-08-11T14:07:08.749Z,102081.41
2022-08-11T14:10:07.074Z,102066.09
2022-08-11T14:13:26.492Z,102070.91
2022-08-11T14:16:28.878Z,102077.41
2022-08-11T14:19:26.388Z,102082.56
2022-08-11T14:22:23.329Z,102064.81
2022-08-11T14:25:20.587Z,102063.19
2022-08-11T14:28:33.569Z,102067.06
2022-08-11T14:31:34.429Z,102068.31
2022-08-11T14:34:32.047Z,102064.09
2022-08-11T14:37:29.166Z,102076.72
2022-08-11T14:40:44.594Z,102072.72
2022-08-11T14:44:13.246Z,102068.00
2022-08-11T14:47:24.022Z,102074.75
2022-08-11T14:50:24.200Z,102059.56
2022-08-11T14:53:21.873Z,102061.97
2022-08-11T14:56:37.298Z,102059.94
2022-08-11T14:59:34.452Z,102055.16
2022-08-11T15:02:49.923Z,102043.34
2022-08-11T15:05:58.623Z,102038.13
2022-08-11T15:08:56.572Z,102059.41
2022-08-11T15:12:32.715Z,102042.75
2022-08-11T15:15:44.407Z,102051.25
2022-08-11T15:18:41.170Z,102049.53
2022-08-11T15:21:56.799Z,102036.63
2022-08-11T15:24:54.546Z,102033.41
2022-08-11T15:28:10.104Z,102030.44
2022-08-11T15:31:42.410Z,102018.91
2022-08-11T15:35:08.330Z,102020.22
2022-08-11T15:38:04.950Z,102018.22
2022-08-11T15:41:21.305Z,102015.34
2022-08-11T15:45:01.009Z,102002.97
2022-08-11T15:48:05.804Z,102009.25
2022-08-11T15:51:11.818Z,102005.38
2022-08-11T15:54:15.819Z,102016.94
2022-08-11T15:57:38.219Z,102008.28
2022-08-11T16:00:58.979Z,102006.56
2022-08-11T16:04:12.963Z,102010.66
2022-08-11T16:07:11.788Z,101999.34
2022-08-11T16:10:19.075Z,101999.09
2022-08-11T16:13:16.205Z,102002.00
2022-08-11T16:16:17.149Z,102008.22
2022-08-11T16:19:14.795Z,101992.75
2022-08-11T16:22:12.812Z,102008.59
2022-08-11T16:27:03.822Z,101997.72
2022-08-11T16:28:29.964Z,101995.84
2022-08-11T16:31:28.205Z,101980.69
2022-08-11T16:34:44.282Z,101981.06
2022-08-11T16:37:59.876Z,101985.03
2022-08-11T16:40:58.124Z,101978.94
2022-08-11T16:44:13.857Z,101961.44
2022-08-11T16:47:16.198Z,101960.41
2022-08-11T16:50:13.419Z,101955.72
2022-08-11T16:53:10.119Z,101948.28
2022-08-11T16:56:07.858Z,101965.19
2022-08-11T16:59:32.200Z,101949.06
2022-08-11T17:02:50.957Z,101962.34
2022-08-11T17:06:11.402Z,101954.19
2022-08-11T17:09:27.050Z,101955.38
2022-08-11T17:12:44.580Z,101943.25
2022-08-11T17:16:04.903Z,101935.31
2022-08-11T17:19:03.632Z,101942.41
2022-08-11T17:22:19.036Z,101936.81
2022-08-11T17:25:16.221Z,101948.84
2022-08-11T17:28:13.404Z,101936.94
2022-08-11T17:31:29.087Z,101946.03
2022-08-11T17:34:44.582Z,101936.59
2022-08-11T17:37:41.540Z,101939.28
2022-08-11T17:40:40.027Z,101936.47
2022-08-11T17:43:56.524Z,101925.47
2022-08-11T17:47:11.710Z,101920.53
2022-08-11T17:50:16.224Z,101931.56
2022-08-11T17:53:32.868Z,101934.63
2022-08-11T17:56:50.065Z,101943.47
2022-08-11T17:59:53.678Z,101942.91
2022-08-11T18:03:09.837Z,101947.06
2022-08-11T18:06:12.574Z,101932.47
2022-08-11T18:09:36.543Z,101929.78
2022-08-11T18:12:51.825Z,101943.97
2022-08-11T18:16:08.035Z,101941.25
2022-08-11T18:19:24.765Z,101951.16
2022-08-11T18:22:44.661Z,101951.59
2022-08-11T18:26:02.853Z,101958.53
2022-08-11T18:29:22.134Z,101950.53
2022-08-11T18:32:49.645Z,101946.41
2022-08-11T18:36:11.722Z,101948.53
2022-08-11T18:39:29.710Z,101946.56
2022-08-11T18:42:46.016Z,101957.97
2022-08-11T18:46:06.916Z,101956.91
2022-08-11T18:50:02.306Z,101968.44
2022-08-11T18:53:12.972Z,101964.69
2022-08-11T18:56:29.232Z,101962.44
2022-08-11T18:59:45.238Z,101974.72
2022-08-11T19:03:00.897Z,101961.38
2022-08-11T19:06:38.395Z,101970.69
2022-08-11T19:09:54.286Z,101973.84
2022-08-11T19:13:09.955Z,101984.75
2022-08-11T19:16:26.203Z,101979.25
2022-08-11T19:19:46.833Z,101985.66
2022-08-11T19:23:03.741Z,101997.28
2022-08-11T19:26:19.534Z,101993.44
2022-08-11T19:30:07.758Z,101984.78
2022-08-11T19:33:11.239Z,101994.34
2022-08-11T19:36:26.983Z,101999.16
2022-08-11T19:39:42.856Z,102003.72
2022-08-11T19:43:00.280Z,102007.09
2022-08-11T19:46:17.344Z,102003.41
2022-08-11T19:49:32.869Z,102010.13
2022-08-11T19:52:48.740Z,102009.81
2022-08-11T19:56:06.172Z,102006.09
2022-08-11T19:59:21.700Z,102006.25
2022-08-11T20:02:37.066Z,102008.00
2022-08-11T20:05:59.439Z,102021.63
2022-08-11T20:09:18.611Z,102014.66
2022-08-11T20:12:33.883Z,102007.47
2022-08-11T20:15:50.264Z,102016.66
2022-08-11T20:19:05.958Z,102014.63
2022-08-11T20:22:22.303Z,102007.56
2022-08-11T20:25:37.708Z,102017.94
2022-08-11T20:28:53.626Z,102016.56
2022-08-11T20:32:09.804Z,102024.34
2022-08-11T20:35:26.508Z,102020.75
2022-08-11T20:38:42.787Z,102010.56
2022-08-11T20:41:59.605Z,102018.81
2022-08-11T20:45:15.301Z,102008.50
2022-08-11T20:48:31.914Z,102006.00
2022-08-11T20:51:48.126Z,102000.41
2022-08-11T20:55:18.877Z,102006.22
2022-08-11T20:59:11.136Z,102006.66
2022-08-11T21:02:13.268Z,102008.38
2022-08-11T21:09:05.224Z,102002.34
2022-08-11T21:12:22.384Z,102004.84
2022-08-11T21:16:01.217Z,102009.44
2022-08-11T21:19:59.533Z,102008.66
2022-08-11T21:23:16.108Z,102015.22
2022-08-11T21:26:40.287Z,102008.28
2022-08-11T21:29:56.097Z,102014.03
2022-08-11T21:33:12.438Z,102010.72
2022-08-11T21:36:28.261Z,102015.22
2022-08-11T21:39:43.937Z,102014.84
2022-08-11T21:43:02.466Z,102011.19
2022-08-11T21:46:18.707Z,102014.38
2022-08-11T21:49:33.949Z,102012.81
2022-08-11T21:52:49.070Z,102020.16
2022-08-11T21:56:05.406Z,102020.19
2022-08-11T21:59:21.115Z,102018.56
2022-08-11T22:02:37.054Z,102019.41
2022-08-11T22:05:53.544Z,102011.16
2022-08-11T22:09:09.460Z,102008.75
2022-08-11T22:12:29.941Z,102004.66
2022-08-11T22:15:50.302Z,102007.97
2022-08-11T22:19:06.504Z,102009.22
2022-08-11T22:22:26.347Z,102002.22
2022-08-11T22:25:46.488Z,102004.28
2022-08-11T22:29:07.839Z,102007.97
2022-08-11T22:32:24.047Z,102001.34
2022-08-11T22:35:40.749Z,102000.59
2022-08-11T22:38:57.376Z,101989.47
2022-08-11T22:42:13.412Z,101996.03
2022-08-11T22:45:29.033Z,101994.00
2022-08-11T22:48:47.361Z,101988.69
2022-08-11T22:52:03.151Z,102001.41
2022-08-11T22:55:19.202Z,101999.78
2022-08-11T22:58:35.173Z,102000.19
2022-08-11T23:01:56.176Z,102001.41
2022-08-11T23:05:13.096Z,101994.84
2022-08-11T23:08:29.317Z,102008.00
2022-08-11T23:12:07.824Z,102004.31
2022-08-11T23:15:19.981Z,102004.28
2022-08-11T23:18:37.773Z,102001.00
2022-08-11T23:21:54.373Z,101997.31
2022-08-11T23:25:17.739Z,102014.59
2022-08-11T23:28:33.470Z,101999.34
2022-08-11T23:31:50.654Z,102005.09
2022-08-11T23:35:38.564Z,102001.84
2022-08-11T23:38:45.554Z,102004.31
2022-08-11T23:42:02.766Z,101993.19
2022-08-11T23:45:22.608Z,101996.47
2022-08-11T23:48:38.018Z,101996.47
2022-08-11T23:51:53.123Z,101987.81
2022-08-11T23:55:09.272Z,101985.31
2022-08-11T23:58:26.017Z,101991.84
